Time;durP1;ratioP1;P1;durP2;ratioP2;P2;SDS_P1;SDS_P2;PMS_P1;PMS_P2;Temp;Humidity;BMP_temperature;BMP_pressure;BME280_temperature;BME280_humidity;BME280_pressure;Samples;Min_cycle;Max_cycle;Signal;HPM_P1;HPM_P2
2023/08/29 00:02:42;;;;;;;16.83;9.93;;;;;;;;;;5076308;28;20088;-76
2023/08/29 00:05:27;;;;;;;14.88;9.70;;;;;;;;;;5076038;28;20044;-76
2023/08/29 00:08:12;;;;;;;16.67;10.02;;;;;;;;;;5061341;28;20040;-76
2023/08/29 00:10:59;;;;;;;17.35;8.75;;;;;;;;;;5067153;28;20036;-76
2023/08/29 00:13:44;;;;;;;12.77;8.70;;;;;;;;;;5076391;28;20393;-76
2023/08/29 00:16:30;;;;;;;15.25;8.43;;;;;;;;;;5075327;28;20045;-76
2023/08/29 00:19:16;;;;;;;16.00;9.38;;;;;;;;;;5075934;28;20509;-76
2023/08/29 00:22:01;;;;;;;14.25;9.02;;;;;;;;;;5069774;28;20048;-76
2023/08/29 00:24:48;;;;;;;13.27;7.85;;;;;;;;;;5067287;28;20048;-76
2023/08/29 00:27:33;;;;;;;14.00;8.15;;;;;;;;;;5075962;28;20045;-76
2023/08/29 00:30:19;;;;;;;16.55;7.63;;;;;;;;;;5075243;28;20386;-76
2023/08/29 00:33:05;;;;;;;11.93;8.07;;;;;;;;;;5067284;28;20054;-76
2023/08/29 00:35:51;;;;;;;12.27;7.82;;;;;;;;;;5075192;28;20052;-76
2023/08/29 00:38:37;;;;;;;12.18;6.90;;;;;;;;;;5075452;28;20045;-76
2023/08/29 00:41:23;;;;;;;16.80;7.38;;;;;;;;;;5066961;28;20040;-75
2023/08/29 00:44:09;;;;;;;11.23;7.00;;;;;;;;;;5066776;28;20048;-75
2023/08/29 00:46:55;;;;;;;16.38;6.97;;;;;;;;;;5067072;28;20406;-77
2023/08/29 00:49:40;;;;;;;10.43;6.72;;;;;;;;;;5067372;28;20048;-78
2023/08/29 00:52:27;;;;;;;12.23;6.88;;;;;;;;;;5067352;28;20040;-77
2023/08/29 00:55:12;;;;;;;12.88;6.82;;;;;;;;;;5066792;28;20489;-76
2023/08/29 00:57:59;;;;;;;11.48;6.80;;;;;;;;;;5066983;28;20044;-77
2023/08/29 01:00:46;;;;;;;9.57;6.53;;;;;;;;;;5075562;28;20040;-77
2023/08/29 01:03:31;;;;;;;10.68;7.47;;;;;;;;;;5075188;28;20044;-76
2023/08/29 01:06:18;;;;;;;17.00;10.23;;;;;;;;;;5074624;28;20048;-77
2023/08/29 01:09:06;;;;;;;14.48;9.30;;;;;;;;;;5074942;28;20044;-77
2023/08/29 01:11:58;;;;;;;17.48;8.73;;;;;;;;;;5074779;28;20049;-76
2023/08/29 01:14:55;;;;;;;22.95;8.45;;;;;;;;;;5074992;28;20048;-76
2023/08/29 01:17:47;;;;;;;11.98;7.97;;;;;;;;;;5074845;28;20041;-76
2023/08/29 01:20:33;;;;;;;14.50;8.00;;;;;;;;;;5074814;28;20044;-76
2023/08/29 01:23:24;;;;;;;17.05;8.18;;;;;;;;;;5074726;28;20044;-77
2023/08/29 01:26:14;;;;;;;13.50;8.65;;;;;;;;;;5061404;28;20044;-76
2023/08/29 01:29:02;;;;;;;19.83;8.90;;;;;;;;;;5075413;28;20389;-76
2023/08/29 01:31:48;;;;;;;17.83;8.73;;;;;;;;;;5074429;28;20044;-77
2023/08/29 01:34:34;;;;;;;15.18;8.60;;;;;;;;;;5074431;28;20470;-76
2023/08/29 01:37:20;;;;;;;20.98;8.77;;;;;;;;;;5075035;28;20053;-76
2023/08/29 01:40:06;;;;;;;19.75;8.80;;;;;;;;;;5066501;28;20485;-76
2023/08/29 01:42:51;;;;;;;15.15;8.00;;;;;;;;;;5074396;28;20044;-76
2023/08/29 01:45:37;;;;;;;19.65;9.70;;;;;;;;;;5074728;28;20045;-76
2023/08/29 01:48:22;;;;;;;21.80;9.23;;;;;;;;;;5066462;28;20044;-76
2023/08/29 01:51:07;;;;;;;14.60;8.40;;;;;;;;;;5074440;28;20040;-76
2023/08/29 01:53:53;;;;;;;13.70;8.23;;;;;;;;;;5065993;28;20044;-76
2023/08/29 01:56:41;;;;;;;16.75;9.20;;;;;;;;;;5074298;28;20493;-76
2023/08/29 01:59:27;;;;;;;15.50;8.23;;;;;;;;;;5061494;28;20044;-76
2023/08/29 02:02:15;;;;;;;14.55;8.65;;;;;;;;;;5066300;28;20048;-76
2023/08/29 02:05:02;;;;;;;13.77;8.75;;;;;;;;;;5067007;28;20048;-77
2023/08/29 02:07:50;;;;;;;14.85;8.52;;;;;;;;;;5080846;28;20044;-77
2023/08/29 02:10:36;;;;;;;15.60;8.48;;;;;;;;;;5073958;28;20485;-77
2023/08/29 02:13:22;;;;;;;13.55;8.70;;;;;;;;;;5066094;28;20060;-76
2023/08/29 02:16:07;;;;;;;17.05;8.38;;;;;;;;;;5065554;28;20394;-76
2023/08/29 02:18:52;;;;;;;12.77;8.63;;;;;;;;;;5058799;28;20041;-76
2023/08/29 02:21:37;;;;;;;13.80;8.30;;;;;;;;;;5080691;28;20052;-77
2023/08/29 02:24:23;;;;;;;18.55;9.50;;;;;;;;;;5074398;28;20040;-76
2023/08/29 02:27:08;;;;;;;16.80;9.40;;;;;;;;;;5074701;28;20036;-76
2023/08/29 02:29:54;;;;;;;20.92;10.43;;;;;;;;;;5066179;28;20470;-76
2023/08/29 02:32:40;;;;;;;15.00;9.10;;;;;;;;;;5074870;28;20040;-76
2023/08/29 02:35:25;;;;;;;13.10;8.75;;;;;;;;;;5066403;28;20040;-76
2023/08/29 02:38:11;;;;;;;15.27;8.93;;;;;;;;;;5074819;28;20044;-76
2023/08/29 02:40:56;;;;;;;14.32;9.63;;;;;;;;;;5074606;28;20044;-76
2023/08/29 02:43:42;;;;;;;15.32;9.05;;;;;;;;;;5074112;28;20048;-75
2023/08/29 02:46:28;;;;;;;14.23;8.85;;;;;;;;;;5073914;28;20052;-76
2023/08/29 02:49:13;;;;;;;16.38;9.07;;;;;;;;;;5065384;28;20049;-76
2023/08/29 02:51:59;;;;;;;16.65;9.45;;;;;;;;;;5058818;28;20048;-76
2023/08/29 02:54:45;;;;;;;20.80;9.82;;;;;;;;;;5064933;28;20044;-76
2023/08/29 02:57:30;;;;;;;20.00;11.43;;;;;;;;;;5065269;28;20041;-76
2023/08/29 03:00:16;;;;;;;20.40;11.07;;;;;;;;;;5065369;28;20485;-76
2023/08/29 03:03:04;;;;;;;19.55;9.77;;;;;;;;;;5065775;28;20473;-76
2023/08/29 03:05:56;;;;;;;18.98;11.23;;;;;;;;;;5073299;28;20413;-76
2023/08/29 03:08:41;;;;;;;16.40;11.73;;;;;;;;;;5079060;28;20052;-76
2023/08/29 03:11:27;;;;;;;24.77;12.98;;;;;;;;;;5063159;28;20044;-76
2023/08/29 03:14:14;;;;;;;22.23;12.25;;;;;;;;;;5065159;28;20032;-77
2023/08/29 03:17:00;;;;;;;23.38;12.60;;;;;;;;;;5064611;28;20044;-76
2023/08/29 03:19:49;;;;;;;17.27;11.95;;;;;;;;;;5064854;28;20040;-76
2023/08/29 03:22:34;;;;;;;24.20;13.07;;;;;;;;;;5064639;28;20044;-75
2023/08/29 03:25:20;;;;;;;19.75;12.77;;;;;;;;;;5064769;28;20041;-76
2023/08/29 03:28:06;;;;;;;19.80;12.13;;;;;;;;;;5073410;28;20478;-77
2023/08/29 03:30:52;;;;;;;21.38;12.77;;;;;;;;;;5073130;28;20040;-76
2023/08/29 03:33:38;;;;;;;17.52;11.68;;;;;;;;;;5065295;28;20048;-76
2023/08/29 03:36:25;;;;;;;19.23;11.40;;;;;;;;;;5076767;28;20040;-76
2023/08/29 03:39:10;;;;;;;15.30;10.52;;;;;;;;;;5076638;28;20041;-76
2023/08/29 03:41:55;;;;;;;19.23;10.35;;;;;;;;;;5076844;28;20040;-76
2023/08/29 03:44:41;;;;;;;17.30;9.75;;;;;;;;;;5076808;28;20044;-76
2023/08/29 03:47:27;;;;;;;17.15;10.18;;;;;;;;;;5068244;28;20052;-76
2023/08/29 03:50:12;;;;;;;20.00;9.98;;;;;;;;;;5068385;28;20474;-76
2023/08/29 03:52:58;;;;;;;15.73;10.00;;;;;;;;;;5067347;28;20044;-76
2023/08/29 03:55:44;;;;;;;18.77;10.32;;;;;;;;;;5082101;28;20045;-75
2023/08/29 03:58:30;;;;;;;17.48;10.23;;;;;;;;;;5083007;28;20037;-76
2023/08/29 04:01:19;;;;;;;17.92;9.88;;;;;;;;;;5067874;28;20048;-76
2023/08/29 04:04:04;;;;;;;18.67;10.60;;;;;;;;;;5067878;28;20041;-75
2023/08/29 04:06:50;;;;;;;14.73;10.18;;;;;;;;;;5076282;28;20048;-76
2023/08/29 04:09:36;;;;;;;17.80;10.38;;;;;;;;;;5076398;28;20389;-76
2023/08/29 04:12:22;;;;;;;19.52;10.85;;;;;;;;;;5063224;28;20048;-76
2023/08/29 04:15:08;;;;;;;19.63;10.35;;;;;;;;;;5067458;28;20040;-76
2023/08/29 04:17:53;;;;;;;18.48;10.45;;;;;;;;;;5076181;28;20052;-76
2023/08/29 04:20:38;;;;;;;15.00;9.65;;;;;;;;;;5076531;28;20044;-76
2023/08/29 04:23:25;;;;;;;16.25;9.73;;;;;;;;;;5067730;28;20044;-76
2023/08/29 04:26:10;;;;;;;21.02;10.50;;;;;;;;;;5067386;28;20052;-75
2023/08/29 04:28:55;;;;;;;20.00;10.70;;;;;;;;;;5075753;28;20041;-75
2023/08/29 04:31:43;;;;;;;17.42;10.35;;;;;;;;;;5075698;28;20040;-76
2023/08/29 04:34:28;;;;;;;15.65;9.63;;;;;;;;;;5075715;28;20493;-76
2023/08/29 04:37:15;;;;;;;19.35;10.57;;;;;;;;;;5075368;28;20037;-75
2023/08/29 04:40:01;;;;;;;16.65;9.82;;;;;;;;;;5075687;28;20048;-75
2023/08/29 04:42:46;;;;;;;12.82;9.57;;;;;;;;;;5075555;28;20052;-75
2023/08/29 04:45:33;;;;;;;20.13;10.63;;;;;;;;;;5067410;28;20473;-76
2023/08/29 04:48:18;;;;;;;17.63;10.07;;;;;;;;;;5068232;28;20048;-76
2023/08/29 04:51:04;;;;;;;14.77;9.57;;;;;;;;;;5079418;28;20040;-76
2023/08/29 04:53:50;;;;;;;21.13;9.85;;;;;;;;;;5079281;28;20052;-76
2023/08/29 04:56:35;;;;;;;20.40;10.50;;;;;;;;;;5070748;28;20045;-76
2023/08/29 04:59:22;;;;;;;21.85;11.43;;;;;;;;;;5070114;28;20040;-74
2023/08/29 05:02:08;;;;;;;16.90;10.43;;;;;;;;;;5083043;28;20044;-75
2023/08/29 05:04:53;;;;;;;22.95;10.70;;;;;;;;;;5077196;28;20040;-74
2023/08/29 05:07:37;;;;;;;19.48;9.65;;;;;;;;;;5077187;28;20485;-76
2023/08/29 05:10:24;;;;;;;18.73;10.73;;;;;;;;;;5077996;28;20041;-76
2023/08/29 05:13:10;;;;;;;28.13;11.57;;;;;;;;;;5059356;28;20049;-75
2023/08/29 05:15:57;;;;;;;26.10;11.20;;;;;;;;;;5065947;28;20053;-75
2023/08/29 05:18:43;;;;;;;25.02;12.10;;;;;;;;;;5066190;28;20056;-75
2023/08/29 05:21:28;;;;;;;23.83;11.40;;;;;;;;;;5066118;28;20040;-76
2023/08/29 05:24:14;;;;;;;22.13;10.38;;;;;;;;;;5080937;28;20045;-75
2023/08/29 05:26:59;;;;;;;17.67;10.98;;;;;;;;;;5074677;28;20056;-77
2023/08/29 05:29:45;;;;;;;18.80;11.38;;;;;;;;;;5074312;28;20490;-76
2023/08/29 05:32:31;;;;;;;21.98;13.43;;;;;;;;;;5074367;28;20409;-76
2023/08/29 05:35:17;;;;;;;29.45;14.35;;;;;;;;;;5074220;28;20049;-75
2023/08/29 05:38:02;;;;;;;23.65;11.95;;;;;;;;;;5074063;28;20040;-75
2023/08/29 05:40:51;;;;;;;29.27;13.45;;;;;;;;;;5074137;28;20045;-75
2023/08/29 05:43:37;;;;;;;24.15;11.95;;;;;;;;;;5080778;28;20045;-75
2023/08/29 05:46:23;;;;;;;25.10;13.73;;;;;;;;;;5073625;28;20044;-75
2023/08/29 05:49:08;;;;;;;29.13;13.73;;;;;;;;;;5080659;28;20493;-75
2023/08/29 05:51:54;;;;;;;18.45;11.00;;;;;;;;;;5059046;28;20040;-75
2023/08/29 05:54:39;;;;;;;17.55;11.02;;;;;;;;;;5073560;28;20048;-75
2023/08/29 05:57:25;;;;;;;20.60;10.75;;;;;;;;;;5079397;28;20044;-76
2023/08/29 06:00:13;;;;;;;23.02;10.80;;;;;;;;;;5073724;28;20053;-75
2023/08/29 06:03:03;;;;;;;20.05;11.10;;;;;;;;;;5071697;28;20044;-75
2023/08/29 06:05:49;;;;;;;20.30;10.07;;;;;;;;;;5073792;28;20058;-75
2023/08/29 06:08:35;;;;;;;22.88;11.20;;;;;;;;;;5074016;28;20044;-75
2023/08/29 06:11:20;;;;;;;23.80;11.15;;;;;;;;;;5073623;28;20478;-76
2023/08/29 06:14:05;;;;;;;24.08;10.38;;;;;;;;;;5073896;28;20048;-76
2023/08/29 06:16:51;;;;;;;22.27;10.60;;;;;;;;;;5080070;28;20397;-75
2023/08/29 06:19:36;;;;;;;17.75;10.50;;;;;;;;;;5080121;28;20482;-75
2023/08/29 06:22:22;;;;;;;19.15;10.43;;;;;;;;;;5073559;28;20045;-75
2023/08/29 06:25:09;;;;;;;16.60;10.07;;;;;;;;;;5080349;28;20048;-74
2023/08/29 06:27:55;;;;;;;16.60;9.68;;;;;;;;;;5079992;28;20045;-75
2023/08/29 06:30:40;;;;;;;19.25;10.77;;;;;;;;;;5073479;28;20393;-75
2023/08/29 06:33:25;;;;;;;19.40;10.93;;;;;;;;;;5080131;28;20040;-75
2023/08/29 06:36:11;;;;;;;18.08;11.30;;;;;;;;;;5079720;28;20041;-75
2023/08/29 06:38:57;;;;;;;22.95;12.15;;;;;;;;;;5072861;28;20420;-76
2023/08/29 06:41:43;;;;;;;19.83;11.13;;;;;;;;;;5072996;28;20048;-76
2023/08/29 06:44:30;;;;;;;14.85;10.77;;;;;;;;;;5076994;28;20045;-75
2023/08/29 06:47:15;;;;;;;20.75;11.52;;;;;;;;;;5072365;28;20048;-76
2023/08/29 06:50:01;;;;;;;19.95;11.75;;;;;;;;;;5074615;28;20049;-76
2023/08/29 06:52:46;;;;;;;27.25;12.43;;;;;;;;;;5073107;28;20037;-76
2023/08/29 06:55:34;;;;;;;18.48;12.13;;;;;;;;;;5071637;28;20041;-74
2023/08/29 06:58:19;;;;;;;21.27;12.25;;;;;;;;;;5079178;28;20036;-76
2023/08/29 07:01:04;;;;;;;18.65;11.77;;;;;;;;;;5073466;28;20048;-76
2023/08/29 07:03:49;;;;;;;22.58;12.57;;;;;;;;;;5072972;28;20041;-76
2023/08/29 07:06:34;;;;;;;22.80;11.48;;;;;;;;;;5072694;28;20048;-76
2023/08/29 07:09:20;;;;;;;15.95;10.10;;;;;;;;;;5076546;28;20045;-76
2023/08/29 07:12:06;;;;;;;17.30;10.43;;;;;;;;;;5080072;28;20044;-76
2023/08/29 07:14:51;;;;;;;13.75;9.88;;;;;;;;;;5084219;28;20041;-75
2023/08/29 07:17:37;;;;;;;16.63;10.80;;;;;;;;;;5083367;28;20040;-74
2023/08/29 07:20:24;;;;;;;17.10;9.63;;;;;;;;;;5076566;28;20044;-76
2023/08/29 07:23:09;;;;;;;14.60;9.30;;;;;;;;;;5077361;28;20044;-76
2023/08/29 07:25:55;;;;;;;18.35;9.32;;;;;;;;;;5077036;28;20041;-77
2023/08/29 07:28:40;;;;;;;14.15;9.00;;;;;;;;;;5076667;28;20052;-75
2023/08/29 07:31:26;;;;;;;11.15;8.45;;;;;;;;;;5076614;28;20040;-76
2023/08/29 07:34:15;;;;;;;14.15;8.68;;;;;;;;;;5076540;28;20132;-75
2023/08/29 07:37:00;;;;;;;14.68;9.20;;;;;;;;;;5074803;28;20040;-75
2023/08/29 07:39:45;;;;;;;14.73;8.10;;;;;;;;;;5075225;28;20040;-75
2023/08/29 07:42:31;;;;;;;11.60;8.20;;;;;;;;;;5075873;28;20049;-75
2023/08/29 07:45:17;;;;;;;17.65;9.30;;;;;;;;;;5075626;28;20053;-75
2023/08/29 07:48:03;;;;;;;12.05;8.25;;;;;;;;;;5076153;28;20409;-75
2023/08/29 07:50:49;;;;;;;14.70;9.35;;;;;;;;;;5075962;28;20040;-75
2023/08/29 07:53:34;;;;;;;12.40;7.93;;;;;;;;;;5076162;28;20045;-75
2023/08/29 07:56:20;;;;;;;14.52;8.48;;;;;;;;;;5075918;28;20041;-75
2023/08/29 07:59:06;;;;;;;13.65;8.60;;;;;;;;;;5082930;28;20044;-75
2023/08/29 08:01:52;;;;;;;12.68;7.63;;;;;;;;;;5076198;28;20048;-76
2023/08/29 08:04:37;;;;;;;9.82;7.78;;;;;;;;;;5075050;28;20040;-76
2023/08/29 08:07:23;;;;;;;12.95;8.30;;;;;;;;;;5075697;28;20052;-75
2023/08/29 08:10:09;;;;;;;13.15;8.60;;;;;;;;;;5075955;28;20044;-75
2023/08/29 08:12:55;;;;;;;11.48;7.78;;;;;;;;;;5075705;28;20040;-75
2023/08/29 08:15:40;;;;;;;15.15;8.05;;;;;;;;;;5075770;28;20049;-76
2023/08/29 08:18:26;;;;;;;17.00;7.90;;;;;;;;;;5075369;28;20044;-75
2023/08/29 08:21:11;;;;;;;11.18;8.77;;;;;;;;;;5081769;28;20040;-77
2023/08/29 08:23:56;;;;;;;17.13;8.57;;;;;;;;;;5075557;28;20478;-76
2023/08/29 08:26:42;;;;;;;13.43;9.02;;;;;;;;;;5082497;28;20093;-75
2023/08/29 08:29:27;;;;;;;19.50;8.93;;;;;;;;;;5067383;28;20041;-76
2023/08/29 08:32:13;;;;;;;13.40;9.52;;;;;;;;;;5075512;28;20048;-75
2023/08/29 08:34:59;;;;;;;17.85;9.10;;;;;;;;;;5075044;28;20052;-76
2023/08/29 08:37:45;;;;;;;13.85;8.95;;;;;;;;;;5066967;28;20033;-76
2023/08/29 08:40:31;;;;;;;17.05;8.73;;;;;;;;;;5075643;28;20052;-76
2023/08/29 08:43:17;;;;;;;11.88;8.38;;;;;;;;;;5075299;28;20048;-76
2023/08/29 08:46:02;;;;;;;10.50;8.18;;;;;;;;;;5075293;28;20040;-76
2023/08/29 08:48:48;;;;;;;10.52;7.80;;;;;;;;;;5082282;28;20052;-76
2023/08/29 08:51:37;;;;;;;16.15;8.57;;;;;;;;;;5075006;28;20036;-76
2023/08/29 08:54:23;;;;;;;12.02;7.13;;;;;;;;;;5075150;28;20389;-76
2023/08/29 08:57:11;;;;;;;19.40;8.88;;;;;;;;;;5074703;28;20044;-75
2023/08/29 08:59:56;;;;;;;13.93;7.88;;;;;;;;;;5082080;28;20049;-75
2023/08/29 09:02:43;;;;;;;14.38;7.45;;;;;;;;;;5075248;28;20401;-76
2023/08/29 09:05:29;;;;;;;12.77;8.68;;;;;;;;;;5074852;28;20044;-76
2023/08/29 09:08:15;;;;;;;12.68;7.35;;;;;;;;;;5073980;28;20048;-76
2023/08/29 09:11:01;;;;;;;16.05;7.88;;;;;;;;;;5081335;28;20040;-74
2023/08/29 09:13:47;;;;;;;14.63;7.70;;;;;;;;;;5074799;28;20465;-74
2023/08/29 09:16:36;;;;;;;11.48;7.75;;;;;;;;;;5073992;28;20045;-74
2023/08/29 09:19:23;;;;;;;12.77;7.30;;;;;;;;;;5059835;28;20044;-75
2023/08/29 09:22:08;;;;;;;11.95;7.45;;;;;;;;;;5074464;28;20048;-75
2023/08/29 09:25:02;;;;;;;15.20;7.82;;;;;;;;;;5081344;28;20037;-75
2023/08/29 09:27:48;;;;;;;13.43;7.80;;;;;;;;;;5074587;28;20044;-75
2023/08/29 09:30:41;;;;;;;14.65;6.82;;;;;;;;;;5074682;28;20048;-75
2023/08/29 09:33:27;;;;;;;11.75;7.78;;;;;;;;;;5074201;28;20036;-75
2023/08/29 09:36:12;;;;;;;15.63;8.07;;;;;;;;;;5074262;28;20056;-73
2023/08/29 09:38:58;;;;;;;17.52;8.10;;;;;;;;;;5074212;28;20382;-75
2023/08/29 09:41:46;;;;;;;14.75;7.50;;;;;;;;;;5051897;28;20045;-75
2023/08/29 09:44:37;;;;;;;13.23;7.28;;;;;;;;;;5073334;28;20044;-73
2023/08/29 09:47:23;;;;;;;13.40;7.25;;;;;;;;;;5074011;28;20041;-74
2023/08/29 09:50:09;;;;;;;12.18;7.57;;;;;;;;;;5074069;28;20060;-74
2023/08/29 09:52:56;;;;;;;12.88;7.85;;;;;;;;;;5073937;28;20052;-74
2023/08/29 09:55:48;;;;;;;13.48;8.02;;;;;;;;;;5074175;28;20394;-74
2023/08/29 09:58:33;;;;;;;17.73;8.50;;;;;;;;;;5073412;28;20044;-74
2023/08/29 10:01:20;;;;;;;13.45;8.55;;;;;;;;;;5073814;28;20406;-74
2023/08/29 10:04:10;;;;;;;11.57;7.85;;;;;;;;;;5073707;28;20078;-74
2023/08/29 10:06:58;;;;;;;12.80;8.20;;;;;;;;;;5074195;28;20410;-74
2023/08/29 10:09:44;;;;;;;12.32;8.10;;;;;;;;;;5065350;28;20048;-74
2023/08/29 10:12:28;;;;;;;13.68;7.97;;;;;;;;;;5073505;28;20045;-75
2023/08/29 10:15:17;;;;;;;16.60;7.80;;;;;;;;;;5058569;28;20052;-75
2023/08/29 10:18:03;;;;;;;16.90;8.18;;;;;;;;;;5073572;28;20040;-74
2023/08/29 10:20:49;;;;;;;12.77;8.05;;;;;;;;;;5073700;28;20421;-75
2023/08/29 10:23:35;;;;;;;13.35;7.68;;;;;;;;;;5065114;28;20044;-75
2023/08/29 10:26:23;;;;;;;14.63;7.97;;;;;;;;;;5073847;28;20040;-74
2023/08/29 10:29:08;;;;;;;16.15;8.55;;;;;;;;;;5062721;28;20040;-75
2023/08/29 10:31:54;;;;;;;11.70;8.18;;;;;;;;;;5073870;28;20398;-75
2023/08/29 10:34:40;;;;;;;15.65;8.30;;;;;;;;;;5073073;28;20044;-74
2023/08/29 10:37:29;;;;;;;14.32;8.00;;;;;;;;;;5072942;28;20036;-73
2023/08/29 10:40:15;;;;;;;15.38;9.25;;;;;;;;;;5073420;28;20425;-74
2023/08/29 10:43:00;;;;;;;14.85;8.88;;;;;;;;;;5079050;28;20048;-75
2023/08/29 10:45:56;;;;;;;14.10;8.50;;;;;;;;;;5073286;28;20390;-75
2023/08/29 10:48:44;;;;;;;14.30;8.23;;;;;;;;;;5063966;28;20049;-74
2023/08/29 10:51:29;;;;;;;11.70;8.45;;;;;;;;;;5064725;28;20037;-75
2023/08/29 10:54:15;;;;;;;12.73;8.10;;;;;;;;;;5079387;28;20045;-75
2023/08/29 10:57:00;;;;;;;11.18;7.95;;;;;;;;;;5072169;28;20044;-75
2023/08/29 10:59:45;;;;;;;13.25;8.35;;;;;;;;;;5072938;28;20481;-75
2023/08/29 11:02:32;;;;;;;14.20;8.18;;;;;;;;;;5079853;28;20045;-74
2023/08/29 11:05:19;;;;;;;13.85;8.63;;;;;;;;;;5072187;28;20044;-74
2023/08/29 11:08:23;;;;;;;19.13;9.05;;;;;;;;;;5072961;28;20048;-74
2023/08/29 11:11:22;;;;;;;12.20;8.18;;;;;;;;;;5072273;28;20036;-74
2023/08/29 11:14:07;;;;;;;17.10;8.48;;;;;;;;;;5079627;28;20048;-74
2023/08/29 11:17:12;;;;;;;11.40;7.70;;;;;;;;;;5079197;28;20470;-74
2023/08/29 11:20:02;;;;;;;17.80;8.60;;;;;;;;;;5072850;28;20045;-74
2023/08/29 11:22:47;;;;;;;15.82;7.47;;;;;;;;;;5058081;28;20454;-74
2023/08/29 11:25:37;;;;;;;13.35;8.55;;;;;;;;;;5079120;28;20418;-74
2023/08/29 11:28:22;;;;;;;18.25;8.95;;;;;;;;;;5072948;28;20056;-74
2023/08/29 11:31:08;;;;;;;14.32;8.57;;;;;;;;;;5072122;28;20037;-74
2023/08/29 11:33:53;;;;;;;17.90;8.50;;;;;;;;;;5073145;28;20045;-76
2023/08/29 11:36:40;;;;;;;11.95;8.40;;;;;;;;;;5072545;28;20394;-75
2023/08/29 11:39:26;;;;;;;13.48;8.40;;;;;;;;;;5072871;28;20048;-75
2023/08/29 11:42:20;;;;;;;15.50;8.95;;;;;;;;;;5079803;28;20053;-75
2023/08/29 11:45:06;;;;;;;12.43;7.63;;;;;;;;;;5072536;28;20044;-75
2023/08/29 11:47:52;;;;;;;17.38;8.95;;;;;;;;;;5071153;28;20048;-75
2023/08/29 11:50:40;;;;;;;18.98;8.70;;;;;;;;;;5071664;28;20048;-75
2023/08/29 11:53:31;;;;;;;14.13;8.60;;;;;;;;;;5056468;28;20044;-74
2023/08/29 11:56:16;;;;;;;14.50;8.15;;;;;;;;;;5074467;28;20041;-74
2023/08/29 11:59:02;;;;;;;19.38;7.68;;;;;;;;;;5075125;28;20052;-75
2023/08/29 12:01:47;;;;;;;14.00;8.45;;;;;;;;;;5074905;28;20389;-74
2023/08/29 12:04:38;;;;;;;16.98;9.00;;;;;;;;;;5074854;28;20493;-75
2023/08/29 12:07:30;;;;;;;14.15;8.93;;;;;;;;;;5074564;28;20044;-74
2023/08/29 12:10:16;;;;;;;19.75;9.23;;;;;;;;;;5074736;28;20052;-74
2023/08/29 12:13:11;;;;;;;12.07;8.85;;;;;;;;;;5059497;28;20052;-74
2023/08/29 12:15:56;;;;;;;14.13;8.23;;;;;;;;;;5074435;28;20048;-74
2023/08/29 12:18:42;;;;;;;17.92;8.05;;;;;;;;;;5073667;28;20048;-74
2023/08/29 12:21:27;;;;;;;17.83;8.23;;;;;;;;;;5074254;28;20389;-74
2023/08/29 12:24:13;;;;;;;19.27;7.90;;;;;;;;;;5074314;28;20048;-74
2023/08/29 12:26:59;;;;;;;31.45;8.65;;;;;;;;;;5074499;28;20045;-74
2023/08/29 12:29:44;;;;;;;12.98;8.15;;;;;;;;;;5074351;28;20045;-74
2023/08/29 12:32:30;;;;;;;10.25;5.43;;;;;;;;;;5074244;28;20048;-73
2023/08/29 12:35:16;;;;;;;9.77;6.57;;;;;;;;;;5074377;28;20048;-73
2023/08/29 12:38:02;;;;;;;17.48;5.90;;;;;;;;;;5074140;28;20036;-74
2023/08/29 12:40:47;;;;;;;14.02;6.55;;;;;;;;;;5080988;28;20044;-74
2023/08/29 12:43:33;;;;;;;10.13;5.40;;;;;;;;;;5073456;28;20533;-74
2023/08/29 12:46:21;;;;;;;20.00;5.85;;;;;;;;;;5073095;28;20409;-74
2023/08/29 12:49:07;;;;;;;13.77;5.35;;;;;;;;;;5074005;28;20487;-75
2023/08/29 12:51:52;;;;;;;13.20;6.88;;;;;;;;;;5073310;28;20048;-73
2023/08/29 12:54:38;;;;;;;12.25;6.63;;;;;;;;;;5080729;28;20036;-76
2023/08/29 12:57:22;;;;;;;14.10;6.72;;;;;;;;;;5073613;28;20044;-75
2023/08/29 13:00:08;;;;;;;17.45;6.18;;;;;;;;;;5080677;28;20036;-75
2023/08/29 13:02:53;;;;;;;8.48;5.13;;;;;;;;;;5073811;28;20040;-75
2023/08/29 13:05:39;;;;;;;15.88;6.90;;;;;;;;;;5073470;28;20048;-74
2023/08/29 13:08:24;;;;;;;23.45;8.48;;;;;;;;;;5079508;28;20048;-75
2023/08/29 13:11:10;;;;;;;15.75;8.63;;;;;;;;;;5078844;28;20045;-75
2023/08/29 13:13:54;;;;;;;20.05;8.98;;;;;;;;;;5079191;28;20044;-75
2023/08/29 13:16:40;;;;;;;16.23;8.65;;;;;;;;;;5073026;28;20041;-75
2023/08/29 13:19:26;;;;;;;15.98;8.98;;;;;;;;;;5072580;28;20044;-75
2023/08/29 13:22:11;;;;;;;17.65;9.70;;;;;;;;;;5072777;28;20048;-75
2023/08/29 13:24:58;;;;;;;21.85;9.90;;;;;;;;;;5050952;28;20406;-74
2023/08/29 13:27:45;;;;;;;19.83;8.95;;;;;;;;;;5073295;28;20044;-74
2023/08/29 13:30:30;;;;;;;20.27;8.63;;;;;;;;;;5072909;28;20096;-73
2023/08/29 13:33:16;;;;;;;15.82;8.45;;;;;;;;;;5073096;28;20041;-73
2023/08/29 13:36:01;;;;;;;26.27;9.70;;;;;;;;;;5073205;28;20044;-74
2023/08/29 13:38:47;;;;;;;31.35;17.65;;;;;;;;;;5072637;28;20045;-74
2023/08/29 13:41:32;;;;;;;23.67;9.45;;;;;;;;;;5072688;28;20040;-74
2023/08/29 13:44:18;;;;;;;20.08;8.90;;;;;;;;;;5078996;28;20056;-73
2023/08/29 13:47:03;;;;;;;23.10;9.55;;;;;;;;;;5072947;28;20394;-73
2023/08/29 13:49:49;;;;;;;20.25;9.40;;;;;;;;;;5073060;28;20041;-74
2023/08/29 13:52:35;;;;;;;35.55;15.10;;;;;;;;;;5072737;28;20040;-74
2023/08/29 13:55:20;;;;;;;40.10;12.25;;;;;;;;;;5072265;28;20056;-74
2023/08/29 13:58:06;;;;;;;42.10;12.32;;;;;;;;;;5072325;28;20032;-73
2023/08/29 14:00:51;;;;;;;26.30;10.40;;;;;;;;;;5072995;28;20040;-74
2023/08/29 14:03:37;;;;;;;24.10;11.57;;;;;;;;;;5079428;28;20037;-74
2023/08/29 14:06:23;;;;;;;22.60;12.15;;;;;;;;;;5072643;28;20040;-74
2023/08/29 14:09:09;;;;;;;32.67;13.45;;;;;;;;;;5079293;28;20401;-74
2023/08/29 14:11:55;;;;;;;24.73;11.43;;;;;;;;;;5072307;28;20041;-73
2023/08/29 14:14:40;;;;;;;19.65;12.27;;;;;;;;;;5072459;28;20497;-74
2023/08/29 14:17:26;;;;;;;21.05;11.27;;;;;;;;;;5070643;28;20398;-74
2023/08/29 14:20:11;;;;;;;19.13;11.60;;;;;;;;;;5071086;28;20647;-74
2023/08/29 14:23:00;;;;;;;19.35;10.80;;;;;;;;;;5072160;28;20041;-74
2023/08/29 14:25:46;;;;;;;24.40;10.93;;;;;;;;;;5070951;28;20441;-74
2023/08/29 14:28:31;;;;;;;21.77;11.13;;;;;;;;;;5072061;28;20036;-74
2023/08/29 14:31:22;;;;;;;21.13;10.07;;;;;;;;;;5063796;28;20044;-73
2023/08/29 14:34:07;;;;;;;17.42;9.80;;;;;;;;;;5070881;28;20036;-73
2023/08/29 14:36:53;;;;;;;18.63;10.25;;;;;;;;;;5071602;28;20049;-74
2023/08/29 14:39:38;;;;;;;21.98;11.30;;;;;;;;;;5071907;28;20041;-74
2023/08/29 14:42:25;;;;;;;18.27;9.32;;;;;;;;;;5064916;28;20048;-74
2023/08/29 14:45:11;;;;;;;21.40;9.57;;;;;;;;;;5073226;28;20049;-74
2023/08/29 14:47:56;;;;;;;14.05;9.68;;;;;;;;;;5073399;28;20044;-74
2023/08/29 14:50:45;;;;;;;34.33;9.30;;;;;;;;;;5073558;28;20044;-73
2023/08/29 14:53:33;;;;;;;25.25;8.52;;;;;;;;;;5064955;28;20405;-73
2023/08/29 14:56:18;;;;;;;16.40;8.60;;;;;;;;;;5072965;28;20044;-73
2023/08/29 14:59:05;;;;;;;15.40;9.05;;;;;;;;;;5072914;28;20036;-73
2023/08/29 15:01:52;;;;;;;17.77;8.57;;;;;;;;;;5072393;28;20052;-74
2023/08/29 15:04:36;;;;;;;19.83;9.70;;;;;;;;;;5072479;28;20048;-74
2023/08/29 15:07:23;;;;;;;19.38;9.43;;;;;;;;;;5073355;28;20037;-74
2023/08/29 15:10:08;;;;;;;22.77;10.82;;;;;;;;;;5064273;28;20040;-75
2023/08/29 15:12:53;;;;;;;21.73;12.18;;;;;;;;;;5072680;28;20048;-74
2023/08/29 15:15:38;;;;;;;21.75;11.23;;;;;;;;;;5073168;28;20494;-75
2023/08/29 15:18:23;;;;;;;18.05;10.55;;;;;;;;;;5072351;28;20044;-76
2023/08/29 15:21:09;;;;;;;20.00;10.70;;;;;;;;;;5057706;28;20048;-74
2023/08/29 15:23:55;;;;;;;19.48;10.68;;;;;;;;;;5079538;28;20036;-73
2023/08/29 15:26:40;;;;;;;14.25;9.02;;;;;;;;;;5072499;28;20044;-73
2023/08/29 15:29:26;;;;;;;20.85;8.98;;;;;;;;;;5074517;28;20473;-74
2023/08/29 15:32:13;;;;;;;18.60;8.73;;;;;;;;;;5076910;28;20044;-74
2023/08/29 15:35:04;;;;;;;15.70;8.70;;;;;;;;;;5068581;28;20041;-73
2023/08/29 15:37:50;;;;;;;16.58;8.35;;;;;;;;;;5076242;28;20052;-73
2023/08/29 15:40:35;;;;;;;13.88;8.18;;;;;;;;;;5076786;28;20486;-74
2023/08/29 15:43:25;;;;;;;13.48;8.35;;;;;;;;;;5076646;28;20036;-74
2023/08/29 15:46:10;;;;;;;13.68;8.20;;;;;;;;;;5076584;28;20052;-75
2023/08/29 15:48:55;;;;;;;15.25;8.30;;;;;;;;;;5083190;28;20048;-75
2023/08/29 15:51:41;;;;;;;12.95;7.78;;;;;;;;;;5075998;28;20052;-75
2023/08/29 15:54:26;;;;;;;17.02;7.32;;;;;;;;;;5076749;28;20390;-75
2023/08/29 15:57:13;;;;;;;15.60;8.27;;;;;;;;;;5076093;28;20048;-76
2023/08/29 15:59:58;;;;;;;15.00;8.38;;;;;;;;;;5076394;28;20048;-76
2023/08/29 16:02:44;;;;;;;17.17;7.68;;;;;;;;;;5076004;28;20040;-76
2023/08/29 16:05:29;;;;;;;13.85;7.20;;;;;;;;;;5075941;28;20041;-77
2023/08/29 16:08:16;;;;;;;12.57;6.93;;;;;;;;;;5076377;28;20056;-74
2023/08/29 16:11:01;;;;;;;18.45;8.27;;;;;;;;;;5082110;28;20048;-76
2023/08/29 16:13:46;;;;;;;15.65;7.82;;;;;;;;;;5082230;28;20049;-76
2023/08/29 16:16:32;;;;;;;15.95;8.35;;;;;;;;;;5075305;28;20147;-76
2023/08/29 16:19:17;;;;;;;14.65;8.55;;;;;;;;;;5075458;28;20045;-75